createdAt,value
2023-03-22T00:01:59.099Z,14.68
2023-03-22T00:07:01.470Z,14.88
2023-03-22T00:12:04.313Z,14.57
2023-03-22T00:17:06.424Z,14.77
2023-03-22T00:22:08.656Z,14.45
2023-03-22T00:27:10.847Z,14.80
2023-03-22T00:32:12.989Z,14.35
2023-03-22T00:37:16.563Z,15.70
2023-03-22T00:42:18.661Z,16.10
2023-03-22T00:47:23.675Z,17.23
2023-03-22T00:52:26.124Z,17.13
2023-03-22T00:57:28.298Z,17.92
2023-03-22T01:02:34.054Z,17.42
2023-03-22T01:07:38.486Z,17.50
2023-03-22T01:12:40.678Z,17.15
2023-03-22T01:17:43.377Z,17.33
2023-03-22T01:22:45.595Z,16.05
2023-03-22T01:27:47.780Z,15.88
2023-03-22T01:32:49.849Z,16.00
2023-03-22T01:37:53.130Z,15.75
2023-03-22T01:42:56.993Z,14.80
2023-03-22T01:48:12.367Z,14.35
2023-03-22T01:53:18.956Z,13.90
2023-03-22T01:58:22.359Z,14.73
2023-03-22T02:03:53.077Z,14.30
2023-03-22T02:08:58.553Z,14.25
2023-03-22T02:14:17.277Z,13.18
2023-03-22T02:19:42.671Z,12.98
2023-03-22T02:25:04.623Z,12.20
2023-03-22T02:30:24.701Z,10.73
2023-03-22T02:35:50.500Z,9.40
2023-03-22T02:41:10.911Z,9.85
2023-03-22T02:46:27.674Z,8.82
2023-03-22T02:51:58.663Z,7.70
2023-03-22T02:57:08.341Z,8.05
2023-03-22T03:02:17.391Z,6.78
2023-03-22T03:07:24.595Z,6.75
2023-03-22T03:12:28.260Z,6.07
2023-03-22T03:18:00.051Z,6.07
2023-03-22T03:23:20.724Z,5.78
2023-03-22T03:28:43.419Z,6.10
2023-03-22T03:33:55.275Z,5.85
2023-03-22T03:38:58.450Z,5.53
2023-03-22T03:44:02.029Z,5.18
2023-03-22T03:49:05.244Z,5.18
2023-03-22T03:54:07.396Z,5.35
2023-03-22T03:59:09.717Z,5.30
2023-03-22T04:04:14.187Z,5.03
2023-03-22T04:09:28.016Z,5.05
2023-03-22T04:14:36.408Z,5.00
2023-03-22T04:19:45.826Z,5.13
2023-03-22T04:24:50.242Z,4.70
2023-03-22T04:29:56.119Z,4.25
2023-03-22T04:35:36.402Z,4.32
2023-03-22T04:40:39.564Z,4.13
2023-03-22T04:45:54.965Z,4.28
2023-03-22T04:51:04.196Z,4.32
2023-03-22T04:56:14.535Z,3.67
2023-03-22T05:01:19.018Z,4.38
2023-03-22T05:06:26.387Z,4.93
2023-03-22T05:11:38.389Z,5.28
2023-03-22T05:16:53.016Z,5.97
2023-03-22T05:21:58.590Z,5.70
2023-03-22T05:27:14.409Z,6.82
2023-03-22T05:32:19.008Z,7.05
2023-03-22T05:37:23.189Z,7.25
2023-03-22T05:42:32.709Z,7.35
2023-03-22T05:47:39.478Z,7.72
2023-03-22T05:52:49.049Z,8.68
2023-03-22T05:58:19.206Z,10.20
2023-03-22T06:03:23.593Z,9.82
2023-03-22T06:08:44.066Z,10.65
2023-03-22T06:13:46.208Z,10.23
2023-03-22T06:18:49.611Z,10.75
2023-03-22T06:23:52.057Z,10.50
2023-03-22T06:28:56.581Z,10.98
2023-03-22T06:33:58.916Z,10.90
2023-03-22T06:39:14.161Z,13.63
2023-03-22T06:44:19.636Z,10.55
2023-03-22T06:49:28.011Z,9.20
2023-03-22T06:54:31.458Z,10.82
2023-03-22T06:59:34.725Z,11.23
2023-03-22T07:04:37.447Z,10.32
2023-03-22T07:09:40.125Z,9.65
2023-03-22T07:14:42.405Z,9.60
2023-03-22T07:20:11.005Z,7.00
2023-03-22T07:25:13.764Z,8.93
2023-03-22T07:30:17.272Z,9.20
2023-03-22T07:35:21.985Z,8.95
2023-03-22T07:40:25.579Z,8.45
2023-03-22T07:45:30.749Z,7.57
2023-03-22T07:51:02.326Z,7.65
2023-03-22T07:56:05.532Z,7.13
2023-03-22T08:01:09.132Z,21.15
2023-03-22T08:06:46.693Z,7.25
2023-03-22T08:11:49.041Z,6.40
2023-03-22T08:16:51.316Z,6.30
2023-03-22T08:21:53.470Z,6.20
2023-03-22T08:27:14.286Z,5.72
2023-03-22T08:37:27.909Z,5.75
2023-03-22T08:42:30.597Z,4.55
2023-03-22T08:47:32.920Z,5.43
2023-03-22T08:52:38.457Z,5.65
2023-03-22T08:57:50.217Z,5.18
2023-03-22T09:02:57.880Z,5.20
2023-03-22T09:08:06.297Z,5.05
2023-03-22T09:13:17.821Z,4.10
2023-03-22T09:18:27.113Z,4.20
2023-03-22T09:23:34.273Z,4.65
2023-03-22T09:28:38.243Z,3.70
2023-03-22T09:33:42.961Z,3.20
2023-03-22T09:38:46.884Z,3.00
2023-03-22T09:44:01.319Z,2.90
2023-03-22T09:49:09.833Z,2.70
2023-03-22T09:54:29.448Z,2.40
2023-03-22T10:00:06.185Z,2.88
2023-03-22T10:05:17.091Z,2.30
2023-03-22T10:10:22.999Z,2.25
2023-03-22T10:15:36.178Z,2.17
2023-03-22T10:21:01.719Z,2.08
2023-03-22T10:26:05.062Z,2.10
2023-03-22T10:31:14.830Z,1.85
2023-03-22T10:36:19.748Z,1.77
2023-03-22T10:41:25.778Z,2.00
2023-03-22T10:46:33.283Z,1.98
2023-03-22T10:51:48.015Z,2.05
2023-03-22T10:56:50.199Z,1.98
2023-03-22T11:01:52.952Z,2.17
2023-03-22T11:06:56.444Z,2.10
2023-03-22T11:12:00.689Z,1.67
2023-03-22T11:17:14.175Z,1.83
2023-03-22T11:22:39.160Z,2.33
2023-03-22T11:27:56.421Z,1.90
2023-03-22T11:33:09.659Z,2.00
2023-03-22T11:38:31.444Z,2.38
2023-03-22T11:43:38.484Z,2.10
2023-03-22T11:48:42.336Z,1.75
2023-03-22T11:53:48.087Z,2.50
2023-03-22T11:59:19.348Z,2.90
2023-03-22T12:04:27.304Z,2.83
2023-03-22T12:09:41.320Z,2.92
2023-03-22T12:15:06.008Z,2.50
2023-03-22T12:20:14.509Z,2.95
2023-03-22T12:25:20.882Z,3.08
2023-03-22T12:30:28.358Z,3.05
2023-03-22T12:35:33.571Z,2.72
2023-03-22T12:40:40.371Z,2.78
2023-03-22T12:45:53.333Z,2.50
2023-03-22T12:51:06.372Z,2.53
2023-03-22T12:56:14.558Z,2.55
2023-03-22T13:01:31.632Z,2.58
2023-03-22T13:06:44.206Z,2.60
2023-03-22T13:11:49.028Z,2.45
2023-03-22T13:16:59.222Z,3.10
2023-03-22T13:22:18.431Z,2.40
2023-03-22T13:27:20.541Z,2.38
2023-03-22T13:32:30.728Z,2.50
2023-03-22T13:37:46.027Z,2.95
2023-03-22T13:42:48.478Z,3.10
2023-03-22T13:48:11.956Z,3.60
2023-03-22T13:53:30.271Z,3.28
2023-03-22T13:58:37.267Z,3.80
2023-03-22T14:03:42.925Z,3.58
2023-03-22T14:08:47.340Z,4.10
2023-03-22T14:13:53.784Z,3.00
2023-03-22T14:18:56.648Z,2.90
2023-03-22T14:54:59.551Z,2.67
2023-03-22T15:00:16.842Z,2.88
2023-03-22T15:05:22.780Z,3.03
2023-03-22T15:10:29.478Z,2.65
2023-03-22T15:15:36.231Z,3.08
2023-03-22T15:20:40.133Z,2.95
2023-03-22T15:25:49.569Z,3.38
2023-03-22T15:30:53.869Z,3.47
2023-03-22T15:35:56.948Z,2.70
2023-03-22T15:41:00.161Z,2.58
2023-03-22T15:46:11.726Z,2.47
2023-03-22T15:51:18.022Z,2.55
2023-03-22T15:56:29.084Z,2.40
2023-03-22T16:01:44.172Z,2.28
2023-03-22T16:06:46.687Z,2.55
2023-03-22T16:11:48.943Z,2.50
2023-03-22T16:16:51.198Z,2.25
2023-03-22T16:21:53.796Z,27.20
2023-03-22T16:26:56.114Z,4.53
2023-03-22T16:31:58.246Z,2.10
2023-03-22T16:37:00.382Z,2.25
2023-03-22T16:42:02.542Z,2.13
2023-03-22T16:47:06.431Z,1.90
2023-03-22T16:52:18.441Z,2.00
2023-03-22T16:57:27.649Z,1.85
2023-03-22T17:02:35.593Z,2.00
2023-03-22T17:07:37.849Z,2.00
2023-03-22T17:12:40.648Z,1.70
2023-03-22T17:17:42.844Z,1.55
2023-03-22T17:22:45.343Z,2.45
2023-03-22T17:27:48.148Z,1.90
2023-03-22T17:32:59.620Z,1.83
2023-03-22T17:38:04.309Z,1.92
2023-03-22T17:43:07.173Z,2.10
2023-03-22T17:48:10.057Z,2.20
2023-03-22T17:53:29.230Z,2.05
2023-03-22T17:58:41.790Z,2.40
2023-03-22T18:03:48.945Z,2.22
2023-03-22T18:08:53.067Z,2.30
2023-03-22T18:13:57.501Z,2.60
2023-03-22T18:19:07.371Z,2.42
2023-03-22T18:24:10.262Z,2.50
2023-03-22T18:29:12.665Z,2.30
2023-03-22T18:34:15.333Z,3.28
2023-03-22T18:40:04.605Z,2.33
2023-03-22T18:44:44.564Z,2.97
2023-03-22T18:49:47.627Z,2.95
2023-03-22T18:55:01.536Z,2.53
2023-03-22T19:00:16.378Z,3.53
2023-03-22T19:05:21.852Z,3.03
2023-03-22T19:10:24.757Z,3.60
2023-03-22T19:20:39.995Z,3.60
2023-03-22T19:25:43.700Z,3.17
2023-03-22T19:30:51.188Z,3.35
2023-03-22T19:35:54.344Z,3.78
2023-03-22T19:41:40.641Z,4.45
2023-03-22T19:46:25.926Z,4.43
2023-03-22T19:51:28.595Z,5.28
2023-03-22T19:56:31.758Z,5.25
2023-03-22T20:01:35.025Z,6.40
2023-03-22T20:06:37.844Z,7.10
2023-03-22T20:11:43.654Z,7.82
2023-03-22T20:16:49.713Z,10.07
2023-03-22T20:21:53.878Z,10.75
2023-03-22T20:26:56.714Z,11.90
2023-03-22T20:31:58.928Z,11.88
2023-03-22T20:37:01.990Z,12.38
2023-03-22T20:42:04.225Z,11.88
2023-03-22T20:47:06.396Z,12.45
2023-03-22T20:52:08.594Z,11.95
2023-03-22T20:57:10.801Z,11.52
2023-03-22T21:02:13.982Z,11.30
2023-03-22T21:07:16.350Z,9.77
2023-03-22T21:12:18.518Z,12.73
2023-03-22T21:17:20.772Z,10.90
2023-03-22T21:22:24.370Z,10.68
2023-03-22T21:27:30.354Z,10.95
2023-03-22T21:32:33.195Z,10.93
2023-03-22T21:37:35.529Z,11.18
2023-03-22T21:42:37.813Z,12.32
2023-03-22T21:47:43.834Z,12.82
2023-03-22T21:52:46.095Z,11.88
2023-03-22T21:57:48.309Z,11.82
2023-03-22T22:02:50.925Z,13.25
2023-03-22T22:07:53.733Z,12.90
2023-03-22T22:12:57.749Z,12.65
2023-03-22T22:18:00.144Z,11.80
2023-03-22T22:23:02.353Z,12.25
2023-03-22T22:28:05.250Z,12.98
2023-03-22T22:33:07.403Z,13.50
2023-03-22T22:38:09.730Z,13.32
2023-03-22T22:43:12.022Z,14.07
2023-03-22T22:48:14.250Z,15.02
2023-03-22T22:53:16.476Z,13.63
2023-03-22T22:58:18.626Z,12.00
2023-03-22T23:03:21.293Z,12.60
2023-03-22T23:08:24.954Z,10.80
2023-03-22T23:13:30.277Z,12.00
2023-03-22T23:18:32.846Z,11.63
2023-03-22T23:23:35.009Z,12.63
2023-03-22T23:28:38.396Z,12.68
2023-03-22T23:33:41.768Z,12.15
2023-03-22T23:38:44.006Z,12.52
2023-03-22T23:43:46.296Z,12.93
2023-03-22T23:48:48.505Z,13.30
2023-03-22T23:53:51.233Z,12.73
2023-03-22T23:58:53.517Z,12.55
